createdAt,value
2018-03-01T00:02:18.904Z,-5.30
2018-03-01T00:04:46.360Z,-5.40
2018-03-01T00:07:14.250Z,-5.40
2018-03-01T00:09:41.840Z,-5.50
2018-03-01T00:12:09.284Z,-5.50
2018-03-01T00:14:36.839Z,-5.40
2018-03-01T00:17:07.118Z,-5.30
2018-03-01T00:19:34.578Z,-5.20
2018-03-01T00:22:02.381Z,-5.30
2018-03-01T00:24:29.842Z,-5.40
2018-03-01T00:26:58.169Z,-5.40
2018-03-01T00:29:25.936Z,-5.30
2018-03-01T00:31:53.408Z,-5.50
2018-03-01T00:34:21.665Z,-5.40
2018-03-01T00:36:49.267Z,-5.30
2018-03-01T00:39:16.747Z,-5.30
2018-03-01T00:41:50.616Z,-5.40
2018-03-01T00:44:18.140Z,-5.40
2018-03-01T00:46:45.663Z,-5.40
2018-03-01T00:49:18.301Z,-5.50
2018-03-01T00:51:45.916Z,-5.50
2018-03-01T00:54:13.398Z,-5.40
2018-03-01T00:56:40.983Z,-5.30
2018-03-01T00:59:08.610Z,-5.20
2018-03-01T01:01:36.052Z,-5.30
2018-03-01T01:04:07.667Z,-5.40
2018-03-01T01:09:09.238Z,-5.30
2018-03-01T01:11:36.756Z,-5.30
2018-03-01T01:14:04.218Z,-5.20
2018-03-01T01:16:31.708Z,-5.10
2018-03-01T01:18:59.180Z,-5.00
2018-03-01T01:21:28.109Z,-5.10
2018-03-01T01:23:55.567Z,-5.10
2018-03-01T01:26:23.022Z,-5.10
2018-03-01T01:28:50.480Z,-5.10
2018-03-01T01:31:17.953Z,-5.00
2018-03-01T01:33:45.442Z,-5.10
2018-03-01T01:36:13.641Z,-5.10
2018-03-01T01:38:41.129Z,-5.10
2018-03-01T01:41:08.703Z,-5.00
2018-03-01T01:43:36.148Z,-5.30
2018-03-01T01:46:03.642Z,-5.20
2018-03-01T01:48:31.092Z,-5.30
2018-03-01T01:51:03.976Z,-5.40
2018-03-01T01:53:32.968Z,-5.40
2018-03-01T01:56:01.203Z,-5.20
2018-03-01T01:58:32.819Z,-5.20
2018-03-01T02:01:00.587Z,-5.10
2018-03-01T02:03:28.052Z,-5.20
2018-03-01T02:05:55.517Z,-5.40
2018-03-01T02:08:22.974Z,-5.30
2018-03-01T02:10:50.442Z,-5.30
2018-03-01T02:13:17.984Z,-5.40
2018-03-01T02:15:45.477Z,-5.30
2018-03-01T02:18:12.932Z,-5.10
2018-03-01T02:20:40.467Z,-5.20
2018-03-01T02:23:08.718Z,-5.30
2018-03-01T02:25:36.918Z,-5.30
2018-03-01T02:28:04.396Z,-5.40
2018-03-01T02:30:31.870Z,-5.30
2018-03-01T02:32:59.328Z,-5.30
2018-03-01T02:35:26.824Z,-5.20
2018-03-01T02:37:54.303Z,-5.20
2018-03-01T02:40:21.855Z,-5.20
2018-03-01T02:45:23.197Z,-5.20
2018-03-01T02:47:50.670Z,-5.10
2018-03-01T02:50:18.112Z,-5.20
2018-03-01T02:52:45.596Z,-5.20
2018-03-01T02:55:13.055Z,-5.20
2018-03-01T02:57:40.556Z,-5.30
2018-03-01T03:00:08.792Z,-5.40
2018-03-01T03:02:36.328Z,-5.40
2018-03-01T03:05:03.787Z,-5.40
2018-03-01T03:07:31.445Z,-5.50
2018-03-01T03:09:58.927Z,-5.40
2018-03-01T03:12:26.387Z,-5.30
2018-03-01T03:14:53.861Z,-5.20
2018-03-01T03:17:21.307Z,-5.30
2018-03-01T03:19:48.847Z,-5.40
2018-03-01T03:22:16.308Z,-5.30
2018-03-01T03:24:43.791Z,-5.30
2018-03-01T03:27:11.225Z,-5.30
2018-03-01T03:29:38.706Z,-5.10
2018-03-01T03:32:06.151Z,-5.20
2018-03-01T03:34:33.624Z,-5.40
2018-03-01T03:37:01.851Z,-5.30
2018-03-01T03:39:29.291Z,-5.30
2018-03-01T03:41:56.763Z,-5.20
2018-03-01T03:44:24.220Z,-5.20
2018-03-01T03:46:51.793Z,-5.20
2018-03-01T03:49:19.235Z,-5.10
2018-03-01T03:51:46.856Z,-5.10
2018-03-01T03:54:14.353Z,-5.10
2018-03-01T03:56:41.925Z,-5.20
2018-03-01T03:59:09.360Z,-5.20
2018-03-01T04:01:36.816Z,-5.30
2018-03-01T04:04:04.308Z,-5.20
2018-03-01T04:06:31.771Z,-5.30
2018-03-01T04:09:00.000Z,-5.30
2018-03-01T04:11:27.498Z,-5.30
2018-03-01T04:13:54.933Z,-5.30
2018-03-01T04:16:22.402Z,-5.30
2018-03-01T04:18:49.931Z,-5.30
2018-03-01T04:21:17.395Z,-5.40
2018-03-01T04:23:44.867Z,-5.30
2018-03-01T04:26:12.331Z,-5.30
2018-03-01T04:28:40.559Z,-5.40
2018-03-01T04:31:08.019Z,-5.40
2018-03-01T04:33:35.527Z,-5.30
2018-03-01T04:36:03.006Z,-5.30
2018-03-01T04:38:30.440Z,-5.30
2018-03-01T04:40:57.879Z,-5.30
2018-03-01T04:43:25.350Z,-5.50
2018-03-01T04:45:52.888Z,-5.60
2018-03-01T04:48:20.360Z,-5.50
2018-03-01T04:50:47.817Z,-5.50
2018-03-01T04:53:15.283Z,-5.50
2018-03-01T04:55:43.526Z,-5.40
2018-03-01T04:58:10.980Z,-5.40
2018-03-01T05:00:38.426Z,-5.40
2018-03-01T05:03:06.001Z,-5.40
2018-03-01T05:05:33.433Z,-5.40
2018-03-01T05:08:00.914Z,-5.40
2018-03-01T05:10:28.386Z,-5.40
2018-03-01T05:12:55.830Z,-5.30
2018-03-01T05:15:23.355Z,-5.30
2018-03-01T05:17:50.804Z,-5.40
2018-03-01T05:20:18.277Z,-5.50
2018-03-01T05:22:49.760Z,-5.40
2018-03-01T05:25:17.226Z,-5.40
2018-03-01T05:27:45.544Z,-5.40
2018-03-01T05:30:13.007Z,-5.40
2018-03-01T05:32:40.670Z,-5.40
2018-03-01T05:35:08.115Z,-5.50
2018-03-01T05:37:35.572Z,-5.50
2018-03-01T05:40:03.136Z,-5.40
2018-03-01T05:42:30.674Z,-5.40
2018-03-01T05:44:58.132Z,-5.40
2018-03-01T05:47:25.605Z,-5.40
2018-03-01T05:49:53.088Z,-5.40
2018-03-01T05:52:20.549Z,-5.30
2018-03-01T05:54:47.991Z,-5.30
2018-03-01T05:57:15.453Z,-5.30
2018-03-01T05:59:42.917Z,-5.30
2018-03-01T06:02:10.388Z,-5.30
2018-03-01T06:04:37.852Z,-5.40
2018-03-01T06:07:06.072Z,-5.30
2018-03-01T06:09:33.523Z,-5.40
2018-03-01T06:12:00.986Z,-5.50
2018-03-01T06:14:28.455Z,-5.40
2018-03-01T06:16:55.931Z,-5.40
2018-03-01T06:19:23.398Z,-5.40
2018-03-01T06:21:50.880Z,-5.40
2018-03-01T06:24:18.360Z,-5.40
2018-03-01T06:26:45.972Z,-5.40
2018-03-01T06:29:13.430Z,-5.40
2018-03-01T06:31:40.862Z,-5.30
2018-03-01T06:34:08.394Z,-5.30
2018-03-01T06:36:35.984Z,-5.30
2018-03-01T06:39:03.455Z,-5.20
2018-03-01T06:41:30.912Z,-5.20
2018-03-01T06:43:59.199Z,-5.20
2018-03-01T06:46:26.616Z,-5.20
2018-03-01T06:48:54.102Z,-5.20
2018-03-01T06:51:22.353Z,-5.20
2018-03-01T06:53:49.818Z,-5.20
2018-03-01T06:56:17.252Z,-5.10
2018-03-01T06:58:44.724Z,-5.20
2018-03-01T07:01:12.202Z,-5.10
2018-03-01T07:03:39.760Z,-5.10
2018-03-01T07:06:07.214Z,-5.00
2018-03-01T07:08:40.176Z,-5.00
2018-03-01T07:20:53.901Z,-5.00
2018-03-01T07:23:22.168Z,-4.90
2018-03-01T07:25:49.630Z,-4.90
2018-03-01T07:28:17.846Z,-4.70
2018-03-01T07:30:46.040Z,-4.70
2018-03-01T07:33:14.036Z,-4.70
2018-03-01T07:35:42.275Z,-4.50
2018-03-01T07:38:09.799Z,-4.60
2018-03-01T07:40:37.275Z,-4.50
2018-03-01T07:43:04.740Z,-4.40
2018-03-01T07:45:32.258Z,-4.40
2018-03-01T07:47:59.671Z,-4.30
2018-03-01T07:50:27.147Z,-4.10
2018-03-01T07:52:54.616Z,-3.90
2018-03-01T07:55:22.835Z,-3.50
2018-03-01T07:57:50.314Z,-3.50
2018-03-01T08:00:17.774Z,-3.30
2018-03-01T08:02:45.255Z,-3.40
2018-03-01T08:05:12.696Z,-3.70
2018-03-01T08:07:40.164Z,-3.70
2018-03-01T08:10:08.390Z,-3.60
2018-03-01T08:12:35.860Z,-3.60
2018-03-01T08:15:03.355Z,-3.50
2018-03-01T08:17:30.811Z,-3.20
2018-03-01T08:19:58.399Z,-3.10
2018-03-01T08:22:26.593Z,-2.70
2018-03-01T08:24:54.340Z,-2.70
2018-03-01T08:27:21.807Z,-2.20
2018-03-01T08:29:50.116Z,-2.60
2018-03-01T08:32:22.580Z,-2.30
2018-03-01T08:34:50.047Z,-1.90
2018-03-01T08:37:17.491Z,-1.40
2018-03-01T08:39:44.958Z,-1.20
2018-03-01T08:42:12.403Z,-1.00
2018-03-01T08:44:39.878Z,-0.80
2018-03-01T08:47:07.375Z,-0.60
2018-03-01T08:49:34.867Z,0.00
2018-03-01T08:52:02.327Z,0.00
2018-03-01T08:57:19.054Z,-1.00
2018-03-01T08:59:46.513Z,-1.50
2018-03-01T09:02:17.812Z,-1.70
2018-03-01T09:05:02.762Z,-2.10
2018-03-01T09:07:30.667Z,-1.90
2018-03-01T09:10:14.639Z,-2.00
2018-03-01T09:12:43.234Z,-1.50
2018-03-01T09:15:10.838Z,-0.70
2018-03-01T09:17:42.929Z,0.20
2018-03-01T09:20:14.429Z,0.50
2018-03-01T09:22:42.690Z,1.80
2018-03-01T09:25:14.302Z,1.80
2018-03-01T09:28:09.723Z,2.50
2018-03-01T09:30:39.819Z,2.90
2018-03-01T09:33:09.142Z,2.30
2018-03-01T09:35:40.668Z,2.30
2018-03-01T09:38:08.157Z,2.50
2018-03-01T09:40:36.461Z,3.10
2018-03-01T09:43:05.830Z,3.10
2018-03-01T09:45:33.290Z,3.10
2018-03-01T09:48:00.754Z,3.10
2018-03-01T09:50:28.194Z,3.20
2018-03-01T09:52:56.226Z,2.60
2018-03-01T09:55:23.702Z,2.50
2018-03-01T09:57:51.144Z,3.20
2018-03-01T10:00:18.643Z,3.60
2018-03-01T10:05:54.909Z,4.80
2018-03-01T10:08:22.376Z,4.80
2018-03-01T10:10:50.672Z,4.30
2018-03-01T10:13:18.247Z,4.30
2018-03-01T10:15:50.470Z,5.20
2018-03-01T10:18:18.504Z,5.20
2018-03-01T10:20:46.004Z,5.00
2018-03-01T10:23:13.458Z,4.60
2018-03-01T10:25:40.919Z,4.30
2018-03-01T10:28:09.260Z,4.20
2018-03-01T10:30:36.938Z,4.30
2018-03-01T10:33:04.396Z,4.20
2018-03-01T10:35:31.956Z,4.80
2018-03-01T10:37:59.444Z,5.50
2018-03-01T10:40:26.944Z,4.70
2018-03-01T10:42:54.399Z,4.50
2018-03-01T10:45:22.023Z,4.50
2018-03-01T10:47:53.639Z,3.70
2018-03-01T10:50:21.129Z,3.80
2018-03-01T10:52:48.651Z,4.50
2018-03-01T10:55:16.120Z,4.60
2018-03-01T10:57:43.555Z,4.60
2018-03-01T11:00:11.035Z,4.40
2018-03-01T11:02:38.497Z,4.90
2018-03-01T11:05:06.024Z,4.80
2018-03-01T11:07:33.511Z,5.00
2018-03-01T11:10:01.059Z,5.10
2018-03-01T11:12:28.519Z,5.40
2018-03-01T11:14:56.827Z,5.30
2018-03-01T11:17:24.475Z,4.80
2018-03-01T11:19:51.899Z,4.70
2018-03-01T11:22:24.080Z,4.60
2018-03-01T11:24:51.524Z,4.80
2018-03-01T11:27:23.871Z,5.10
2018-03-01T11:29:51.354Z,5.50
2018-03-01T11:32:18.817Z,5.50
2018-03-01T11:34:50.399Z,5.70
2018-03-01T11:37:17.847Z,5.70
2018-03-01T11:39:47.731Z,5.20
2018-03-01T11:45:08.160Z,5.30
2018-03-01T11:47:36.538Z,5.40
2018-03-01T11:53:06.361Z,4.90
2018-03-01T11:55:33.819Z,5.10
2018-03-01T11:58:01.293Z,5.00
2018-03-01T12:00:29.544Z,5.00
2018-03-01T12:02:56.996Z,5.00
2018-03-01T12:05:24.485Z,5.10
2018-03-01T12:08:00.813Z,5.40
2018-03-01T12:10:28.312Z,6.00
2018-03-01T12:12:55.727Z,5.90
2018-03-01T12:15:23.201Z,5.60
2018-03-01T12:17:50.664Z,5.20
2018-03-01T12:20:18.120Z,5.40
2018-03-01T12:22:45.564Z,5.60
2018-03-01T12:25:13.021Z,5.40
2018-03-01T12:27:40.516Z,5.50
2018-03-01T12:30:12.246Z,5.30
2018-03-01T12:32:39.695Z,5.40
2018-03-01T12:35:07.375Z,5.80
2018-03-01T12:37:35.582Z,5.90
2018-03-01T12:40:03.037Z,5.90
2018-03-01T12:42:30.495Z,5.50
2018-03-01T12:44:58.027Z,4.90
2018-03-01T12:47:25.588Z,5.20
2018-03-01T12:49:53.036Z,5.60
2018-03-01T12:52:20.495Z,5.80
2018-03-01T12:54:48.921Z,6.30
2018-03-01T12:57:17.367Z,5.60
2018-03-01T12:59:44.933Z,5.60
2018-03-01T13:02:12.428Z,5.80
2018-03-01T13:04:40.688Z,6.10
2018-03-01T13:07:08.202Z,6.10
2018-03-01T13:09:35.700Z,6.20
2018-03-01T13:12:03.190Z,5.80
2018-03-01T13:14:30.632Z,6.10
2018-03-01T13:16:58.760Z,5.70
2018-03-01T13:19:26.258Z,5.40
2018-03-01T13:21:53.728Z,5.70
2018-03-01T13:24:21.235Z,6.10
2018-03-01T13:26:49.279Z,6.80
2018-03-01T13:29:17.690Z,6.70
2018-03-01T13:31:47.656Z,6.70
2018-03-01T13:34:20.788Z,6.70
2018-03-01T13:36:48.379Z,6.60
2018-03-01T13:39:15.869Z,6.20
2018-03-01T13:41:43.306Z,5.50
2018-03-01T13:44:10.795Z,5.70
2018-03-01T13:46:39.074Z,6.60
2018-03-01T13:49:06.558Z,6.50
2018-03-01T13:51:34.116Z,6.30
2018-03-01T13:54:01.610Z,5.90
2018-03-01T13:56:29.132Z,5.90
2018-03-01T13:58:56.600Z,5.80
2018-03-01T14:01:24.238Z,5.60
2018-03-01T14:03:52.584Z,5.60
2018-03-01T14:09:10.335Z,5.60
2018-03-01T14:11:38.535Z,5.50
2018-03-01T14:14:06.908Z,5.50
2018-03-01T14:16:34.348Z,5.30
2018-03-01T14:19:18.428Z,5.00
2018-03-01T14:21:50.326Z,5.20
2018-03-01T14:27:39.213Z,5.30
2018-03-01T14:30:10.166Z,5.30
2018-03-01T14:32:37.701Z,5.10
2018-03-01T14:35:05.164Z,5.00
2018-03-01T14:37:33.448Z,4.50
2018-03-01T14:40:00.893Z,4.50
2018-03-01T14:42:28.379Z,4.70
2018-03-01T14:44:56.571Z,4.50
2018-03-01T14:47:24.080Z,4.50
2018-03-01T14:49:51.570Z,3.40
2018-03-01T14:52:19.764Z,3.50
2018-03-01T14:54:47.202Z,3.60
2018-03-01T14:57:14.662Z,3.60
2018-03-01T14:59:42.128Z,3.70
2018-03-01T15:02:09.600Z,3.80
2018-03-01T15:04:37.047Z,3.70
2018-03-01T15:07:04.499Z,3.80
2018-03-01T15:09:31.937Z,3.70
2018-03-01T15:11:59.443Z,3.90
2018-03-01T15:14:27.608Z,3.60
2018-03-01T15:16:55.058Z,3.20
2018-03-01T15:19:23.307Z,3.20
2018-03-01T15:21:50.768Z,3.20
2018-03-01T15:24:18.314Z,3.20
2018-03-01T15:26:45.760Z,3.10
2018-03-01T15:29:13.245Z,3.10
2018-03-01T15:31:40.704Z,3.00
2018-03-01T15:34:09.056Z,3.10
2018-03-01T15:36:36.494Z,3.10
2018-03-01T15:39:04.755Z,2.80
2018-03-01T15:41:32.193Z,2.80
2018-03-01T15:43:59.715Z,2.70
2018-03-01T15:46:27.199Z,2.70
2018-03-01T15:48:58.628Z,2.70
2018-03-01T15:51:31.445Z,2.60
2018-03-01T15:53:59.708Z,2.50
2018-03-01T15:56:27.235Z,2.50
2018-03-01T15:58:54.694Z,2.60
2018-03-01T16:01:22.181Z,2.60
2018-03-01T16:03:49.634Z,2.40
2018-03-01T16:06:20.165Z,2.50
2018-03-01T16:08:47.687Z,2.40
2018-03-01T16:11:15.155Z,2.40
2018-03-01T16:13:42.600Z,2.50
2018-03-01T16:16:10.609Z,2.30
2018-03-01T16:18:38.046Z,2.20
2018-03-01T16:21:05.810Z,2.20
2018-03-01T16:23:33.296Z,2.20
2018-03-01T16:26:01.584Z,2.20
2018-03-01T16:28:29.032Z,2.10
2018-03-01T16:30:56.499Z,2.10
2018-03-01T16:33:24.012Z,2.00
2018-03-01T16:35:51.517Z,2.00
2018-03-01T16:38:19.041Z,2.00
2018-03-01T16:40:46.505Z,2.10
2018-03-01T16:43:14.000Z,2.20
2018-03-01T16:45:41.608Z,2.10
2018-03-01T16:48:09.089Z,2.00
2018-03-01T16:50:37.324Z,1.90
2018-03-01T16:53:04.814Z,1.90
2018-03-01T16:55:33.044Z,1.90
2018-03-01T16:58:00.527Z,1.80
2018-03-01T17:00:28.091Z,1.80
2018-03-01T17:02:55.548Z,1.80
2018-03-01T17:05:23.051Z,1.80
2018-03-01T17:07:50.530Z,1.90
2018-03-01T17:10:18.013Z,1.90
2018-03-01T17:12:45.473Z,1.80
2018-03-01T17:15:12.930Z,1.80
2018-03-01T17:17:40.367Z,1.80
2018-03-01T17:20:08.313Z,1.80
2018-03-01T17:22:35.749Z,1.80
2018-03-01T17:25:11.844Z,1.80
2018-03-01T17:27:39.348Z,1.80
2018-03-01T17:30:08.366Z,1.90
2018-03-01T17:32:35.871Z,1.90
2018-03-01T17:35:03.328Z,1.90
2018-03-01T17:37:31.116Z,1.80
2018-03-01T17:39:58.540Z,1.90
2018-03-01T17:42:26.055Z,1.80
2018-03-01T17:44:53.607Z,1.80
2018-03-01T17:47:21.112Z,1.70
2018-03-01T17:49:48.534Z,1.70
2018-03-01T17:52:16.023Z,1.60
2018-03-01T17:54:43.483Z,1.50
2018-03-01T17:57:10.960Z,1.60
2018-03-01T17:59:39.205Z,1.60
2018-03-01T18:02:06.674Z,1.60
2018-03-01T18:04:34.150Z,1.60
2018-03-01T18:07:02.294Z,1.60
2018-03-01T18:09:29.768Z,1.60
2018-03-01T18:12:04.559Z,1.50
2018-03-01T18:14:32.073Z,1.50
2018-03-01T18:16:59.515Z,1.60
2018-03-01T18:19:31.149Z,1.60
2018-03-01T18:21:58.594Z,1.60
2018-03-01T18:24:26.097Z,1.70
2018-03-01T18:26:53.592Z,1.50
2018-03-01T18:29:27.226Z,1.50
2018-03-01T18:31:54.713Z,1.60
2018-03-01T18:34:22.230Z,1.50
2018-03-01T18:36:49.700Z,1.50
2018-03-01T18:39:34.104Z,1.50
2018-03-01T18:42:01.574Z,1.60
2018-03-01T18:44:29.058Z,1.40
2018-03-01T18:46:56.571Z,1.50
2018-03-01T18:49:27.901Z,1.30
2018-03-01T18:51:56.134Z,1.50
2018-03-01T18:54:23.599Z,1.50
2018-03-01T18:56:51.458Z,1.50
2018-03-01T18:59:18.952Z,1.50
2018-03-01T19:01:46.420Z,1.50
2018-03-01T19:04:13.898Z,1.50
2018-03-01T19:06:41.468Z,1.40
2018-03-01T19:09:08.924Z,1.40
2018-03-01T19:11:36.387Z,1.40
2018-03-01T19:14:03.917Z,1.40
2018-03-01T19:16:32.203Z,1.40
2018-03-01T19:19:15.571Z,1.40
2018-03-01T19:21:56.436Z,1.40
2018-03-01T19:24:23.898Z,1.20
2018-03-01T19:26:52.139Z,1.20
2018-03-01T19:29:19.665Z,1.20
2018-03-01T19:31:47.124Z,1.10
2018-03-01T19:34:14.584Z,1.00
2018-03-01T19:36:42.071Z,1.00
2018-03-01T19:39:09.543Z,1.00
2018-03-01T19:41:37.003Z,1.00
2018-03-01T19:44:04.507Z,1.00
2018-03-01T19:46:31.983Z,1.00
2018-03-01T19:48:59.491Z,0.90
2018-03-01T19:51:27.038Z,0.90
2018-03-01T19:53:54.487Z,0.90
2018-03-01T19:56:21.994Z,0.70
2018-03-01T19:58:49.457Z,0.80
2018-03-01T20:01:17.073Z,0.70
2018-03-01T20:03:44.496Z,0.60
2018-03-01T20:06:12.212Z,0.80
2018-03-01T20:08:39.680Z,0.70
2018-03-01T20:11:07.169Z,0.70
2018-03-01T20:13:34.731Z,0.70
2018-03-01T20:16:06.783Z,0.70
2018-03-01T20:18:34.260Z,0.70
2018-03-01T20:21:01.736Z,0.70
2018-03-01T20:23:30.042Z,0.80
2018-03-01T20:25:58.281Z,0.70
2018-03-01T20:28:25.879Z,0.70
2018-03-01T20:30:53.332Z,0.70
2018-03-01T20:33:20.819Z,0.70
2018-03-01T20:35:48.319Z,0.70
2018-03-01T20:38:15.775Z,0.70
2018-03-01T20:40:43.345Z,0.60
2018-03-01T20:43:11.564Z,0.50
2018-03-01T20:45:39.064Z,0.40
2018-03-01T20:48:06.535Z,0.40
2018-03-01T20:50:34.013Z,0.20
2018-03-01T20:53:01.547Z,0.30
2018-03-01T20:55:29.852Z,0.20
2018-03-01T20:57:57.297Z,0.20
2018-03-01T21:00:24.747Z,0.10
2018-03-01T21:02:52.206Z,0.10
2018-03-01T21:05:19.702Z,0.20
2018-03-01T21:07:47.132Z,0.10
2018-03-01T21:10:14.623Z,-0.10
2018-03-01T21:12:42.059Z,-0.10
2018-03-01T21:15:09.572Z,-0.10
2018-03-01T21:17:37.036Z,-0.20
2018-03-01T21:20:04.510Z,-0.20
2018-03-01T21:22:32.055Z,-0.20
2018-03-01T21:25:10.581Z,-0.30
2018-03-01T21:27:38.128Z,-0.30
2018-03-01T21:30:05.611Z,-0.40
2018-03-01T21:32:33.079Z,-0.60
2018-03-01T21:35:00.613Z,-0.70
2018-03-01T21:37:28.081Z,-0.60
2018-03-01T21:39:55.579Z,-0.50
2018-03-01T21:42:33.833Z,-0.40
2018-03-01T21:45:01.511Z,-0.40
2018-03-01T21:47:28.980Z,-0.50
2018-03-01T21:49:56.436Z,-0.40
2018-03-01T21:52:24.677Z,-0.50
2018-03-01T21:54:52.147Z,-0.60
2018-03-01T21:57:19.632Z,-0.50
2018-03-01T21:59:47.120Z,-0.60
2018-03-01T22:02:15.380Z,-0.50
2018-03-01T22:04:42.824Z,-0.60
2018-03-01T22:07:10.354Z,-0.50
2018-03-01T22:09:37.862Z,-0.50
2018-03-01T22:12:06.755Z,-0.50
2018-03-01T22:14:35.028Z,-0.50
2018-03-01T22:17:03.252Z,-0.60
2018-03-01T22:19:30.759Z,-0.60
2018-03-01T22:22:02.627Z,-0.40
2018-03-01T22:24:30.154Z,-0.50
2018-03-01T22:26:57.606Z,-0.60
2018-03-01T22:29:29.022Z,-0.60
2018-03-01T22:32:01.247Z,-0.50
2018-03-01T22:34:29.360Z,-0.60
2018-03-01T22:37:11.576Z,-0.60
2018-03-01T22:42:24.771Z,-0.60
2018-03-01T22:44:52.996Z,-0.70
2018-03-01T22:47:21.673Z,-0.70
2018-03-01T22:49:50.505Z,-0.70
2018-03-01T22:52:24.209Z,-0.60
2018-03-01T22:54:51.708Z,-0.50
2018-03-01T22:57:23.152Z,-0.70
2018-03-01T22:59:50.768Z,-0.70
2018-03-01T23:02:18.869Z,-0.70
2018-03-01T23:04:47.128Z,-0.80
2018-03-01T23:07:14.688Z,-0.90
2018-03-01T23:09:49.350Z,-0.90
2018-03-01T23:12:22.655Z,-1.00
2018-03-01T23:14:52.705Z,-1.00
2018-03-01T23:17:24.448Z,-1.00
2018-03-01T23:19:55.869Z,-1.20
2018-03-01T23:22:23.342Z,-1.20
2018-03-01T23:24:52.453Z,-1.20
2018-03-01T23:27:21.632Z,-1.10
2018-03-01T23:29:55.757Z,-1.20
2018-03-01T23:32:23.220Z,-1.20
2018-03-01T23:34:54.735Z,-1.30
2018-03-01T23:37:22.230Z,-1.20
2018-03-01T23:39:50.127Z,-1.10
2018-03-01T23:42:18.407Z,-1.10
2018-03-01T23:44:46.021Z,-1.10
2018-03-01T23:47:13.498Z,-1.10
2018-03-01T23:49:41.075Z,-1.30
2018-03-01T23:52:08.600Z,-1.20
2018-03-01T23:54:36.626Z,-1.40
2018-03-01T23:57:04.253Z,-1.50
2018-03-01T23:59:35.711Z,-1.50
